Lonedell, Missouri
Current Conditions -  °F | °C
As of 8:35 AM on Thursday 23 Oct 2014 (Local Time) from KFYG Reporting Station
Clear Clear  
Wind Chill: 44°   Ceiling: Unl
Heat Index: 46°   Visibility: 10mi
Dew Point: 41°   Wind: 6mph
Humidity: 81%   Direction: 150°SSE
Pressure: 30.19"   Gusts: NA
Location:  38.31°N, 90.83°W
Report Text: KFYG 231335Z AUTO 15005KT 10SM CLR 08/05 A3019 RMK AO2
Loading
Personal Weather Stations






























Interactive Weather Map
Tropical Storm Tracking
New forecast layout! Learn more

10-Day Weather Forecast

Advertisements
Track Severe Weather on mobile